Iola, Wisconsin
Current Conditions -  °F | °C
As of 3:35 PM on Monday 24 Nov 2014 (Local Time) from KPCZ Reporting Station
Light Snow Light Snow  
Wind Chill: 24°   Ceiling: 500
Heat Index: 34°   Visibility: 0.75mi
Dew Point: 32°   Wind: 14mph
Humidity: 93%   Direction: 270°W
Pressure: 29.29"   Gusts: 21mph
Location:  44.51°N, 89.13°W
Report Text: KPCZ 242135Z AUTO 27012G18KT 3/4SM -SN OVC005 01/00 A2929 RMK AO2 T00100000
Loading
Personal Weather Stations






























Interactive Weather Map New forecast layout! Learn more

10-Day Weather Forecast

Advertisements
Track Severe Weather on mobile